createdAt,value
2022-08-19T00:00:05.361Z,28.4
2022-08-19T00:01:09.985Z,28.4
2022-08-19T00:02:14.332Z,28.39
2022-08-19T00:03:18.692Z,28.4
2022-08-19T00:04:23.101Z,28.4
2022-08-19T00:05:27.881Z,28.4
2022-08-19T00:06:32.190Z,28.39
2022-08-19T00:07:36.551Z,28.39
2022-08-19T00:08:42.822Z,28.39
2022-08-19T00:09:47.318Z,28.4
2022-08-19T00:10:51.694Z,28.41
2022-08-19T00:11:56.014Z,28.4
2022-08-19T00:13:00.382Z,28.4
2022-08-19T00:14:04.757Z,28.41
2022-08-19T00:15:09.085Z,28.43
2022-08-19T00:16:16.612Z,28.42
2022-08-19T00:17:28.700Z,28.42
2022-08-19T00:18:33.054Z,28.41
2022-08-19T00:19:37.378Z,28.42
2022-08-19T00:20:41.694Z,28.41
2022-08-19T00:21:46.025Z,28.41
2022-08-19T00:22:50.414Z,28.41
2022-08-19T00:23:55.353Z,28.4
2022-08-19T00:24:59.672Z,28.38
2022-08-19T00:26:07.238Z,28.37
2022-08-19T00:27:24.922Z,28.38
2022-08-19T00:28:30.414Z,28.38
2022-08-19T00:29:38.392Z,28.37
2022-08-19T00:30:42.763Z,28.38
2022-08-19T00:31:47.106Z,28.37
2022-08-19T00:32:54.330Z,28.37
2022-08-19T00:33:58.775Z,28.38
2022-08-19T00:35:03.114Z,28.37
2022-08-19T00:36:07.453Z,28.37
2022-08-19T00:37:11.796Z,28.37
2022-08-19T00:38:16.157Z,28.37
2022-08-19T00:39:41.575Z,28.37
2022-08-19T00:40:46.276Z,28.36
2022-08-19T00:41:50.633Z,28.36
2022-08-19T00:42:54.984Z,28.36
2022-08-19T00:43:59.317Z,28.37
2022-08-19T00:45:03.644Z,28.36
2022-08-19T00:46:08.040Z,28.37
2022-08-19T00:47:13.475Z,28.37
2022-08-19T00:48:21.382Z,28.36
2022-08-19T00:49:25.728Z,28.35
2022-08-19T00:50:30.279Z,28.36
2022-08-19T00:51:34.650Z,28.36
2022-08-19T00:52:39.005Z,28.35
2022-08-19T00:53:43.355Z,28.35
2022-08-19T00:54:50.833Z,28.35
2022-08-19T00:55:56.742Z,28.35
2022-08-19T00:57:01.096Z,28.35
2022-08-19T00:58:05.433Z,28.35
2022-08-19T00:59:09.807Z,28.35
2022-08-19T01:00:14.225Z,28.36
2022-08-19T01:01:18.626Z,28.35
2022-08-19T01:02:23.201Z,28.35
2022-08-19T01:03:27.541Z,28.35
2022-08-19T01:04:59.326Z,28.35
2022-08-19T01:06:03.657Z,28.35
2022-08-19T01:07:08.031Z,28.35
2022-08-19T01:08:22.075Z,28.35
2022-08-19T01:09:26.548Z,28.35
2022-08-19T01:10:34.800Z,28.34
2022-08-19T01:11:40.881Z,28.35
2022-08-19T01:12:45.236Z,28.36
2022-08-19T01:13:50.354Z,28.35
2022-08-19T01:14:54.767Z,28.34
2022-08-19T01:16:01.390Z,28.36
2022-08-19T01:17:05.738Z,28.37
2022-08-19T01:18:10.104Z,28.36
2022-08-19T01:19:14.471Z,28.37
2022-08-19T01:20:18.814Z,28.37
2022-08-19T01:21:23.122Z,28.36
2022-08-19T01:22:31.644Z,28.35
2022-08-19T01:23:37.633Z,28.35
2022-08-19T01:24:42.227Z,28.34
2022-08-19T01:25:58.022Z,28.34
2022-08-19T01:27:03.340Z,28.35
2022-08-19T01:28:13.105Z,28.34
2022-08-19T01:29:36.478Z,28.35
2022-08-19T01:30:44.330Z,28.34
2022-08-19T01:31:54.609Z,28.33
2022-08-19T01:32:58.929Z,28.33
2022-08-19T01:34:03.289Z,28.33
2022-08-19T01:35:07.654Z,28.34
2022-08-19T01:36:11.983Z,28.34
2022-08-19T01:37:16.361Z,28.33
2022-08-19T01:38:31.436Z,28.34
2022-08-19T01:39:46.439Z,28.33
2022-08-19T01:40:50.954Z,28.33
2022-08-19T01:41:55.310Z,28.32
2022-08-19T01:42:59.807Z,28.32
2022-08-19T01:44:13.867Z,28.32
2022-08-19T01:45:23.030Z,28.32
2022-08-19T01:46:28.749Z,28.32
2022-08-19T01:47:33.086Z,28.31
2022-08-19T01:48:37.421Z,28.31
2022-08-19T01:49:41.782Z,28.32
2022-08-19T01:50:46.132Z,28.31
2022-08-19T01:51:50.510Z,28.32
2022-08-19T01:53:01.289Z,28.32
2022-08-19T01:54:11.071Z,28.32
2022-08-19T01:55:15.415Z,28.31
2022-08-19T01:56:19.791Z,28.31
2022-08-19T01:57:24.167Z,28.31
2022-08-19T01:58:28.548Z,28.32
2022-08-19T01:59:32.874Z,28.32
2022-08-19T02:00:37.237Z,28.32
2022-08-19T02:01:41.604Z,28.32
2022-08-19T02:02:46.144Z,28.34
2022-08-19T02:03:50.580Z,28.33
2022-08-19T02:05:00.471Z,28.32
2022-08-19T02:06:04.816Z,28.32
2022-08-19T02:07:09.266Z,28.32
2022-08-19T02:08:13.685Z,28.32
2022-08-19T02:09:18.009Z,28.31
2022-08-19T02:10:22.406Z,28.32
2022-08-19T02:11:26.735Z,28.33
2022-08-19T02:12:31.085Z,28.32
2022-08-19T02:13:36.187Z,28.32
2022-08-19T02:14:40.519Z,28.32
2022-08-19T02:15:44.841Z,28.32
2022-08-19T02:16:49.174Z,28.31
2022-08-19T02:17:53.531Z,28.3
2022-08-19T02:18:57.878Z,28.3
2022-08-19T02:20:02.231Z,28.3
2022-08-19T02:21:06.583Z,28.3
2022-08-19T02:22:10.935Z,28.29
2022-08-19T02:23:16.119Z,28.29
2022-08-19T02:24:20.690Z,28.28
2022-08-19T02:25:25.176Z,28.3
2022-08-19T02:26:29.544Z,28.28
2022-08-19T02:27:33.868Z,28.29
2022-08-19T02:28:38.234Z,28.28
2022-08-19T02:29:42.617Z,28.28
2022-08-19T02:30:46.959Z,28.28
2022-08-19T02:31:51.344Z,28.28
2022-08-19T02:32:56.214Z,28.28
2022-08-19T02:34:01.476Z,28.28
2022-08-19T02:35:12.061Z,28.28
2022-08-19T02:36:16.896Z,28.28
2022-08-19T02:37:25.600Z,28.27
2022-08-19T02:38:37.385Z,28.26
2022-08-19T02:39:41.765Z,28.25
2022-08-19T02:40:46.264Z,28.25
2022-08-19T02:41:50.597Z,28.26
2022-08-19T02:42:54.999Z,28.26
2022-08-19T02:43:59.456Z,28.26
2022-08-19T02:45:35.286Z,28.24
2022-08-19T02:46:44.214Z,28.22
2022-08-19T02:47:48.537Z,28.22
2022-08-19T02:48:52.886Z,28.22
2022-08-19T02:49:57.209Z,28.22
2022-08-19T02:51:01.570Z,28.22
2022-08-19T02:52:05.917Z,28.22
2022-08-19T02:53:10.237Z,28.21
2022-08-19T02:54:16.186Z,28.2
2022-08-19T02:55:20.520Z,28.2
2022-08-19T02:56:24.870Z,28.2
2022-08-19T02:57:29.213Z,28.2
2022-08-19T02:58:33.549Z,28.21
2022-08-19T02:59:37.885Z,28.23
2022-08-19T03:00:42.256Z,28.22
2022-08-19T03:01:46.759Z,28.22
2022-08-19T03:02:51.145Z,28.22
2022-08-19T03:03:55.959Z,28.22
2022-08-19T03:05:00.323Z,28.2
2022-08-19T03:06:04.696Z,28.2
2022-08-19T03:07:10.979Z,28.21
2022-08-19T03:08:15.688Z,28.21
2022-08-19T03:09:20.312Z,28.22
2022-08-19T03:10:24.647Z,28.22
2022-08-19T03:11:29.039Z,28.21
2022-08-19T03:12:33.391Z,28.21
2022-08-19T03:13:37.759Z,28.22
2022-08-19T03:14:42.104Z,28.22
2022-08-19T03:15:46.431Z,28.22
2022-08-19T03:16:50.840Z,28.23
2022-08-19T03:17:55.183Z,28.22
2022-08-19T03:19:01.740Z,28.23
2022-08-19T03:20:06.122Z,28.22
2022-08-19T03:21:12.279Z,28.22
2022-08-19T03:22:16.946Z,28.23
2022-08-19T03:23:23.135Z,28.23
2022-08-19T03:24:27.521Z,28.24
2022-08-19T03:25:31.878Z,28.23
2022-08-19T03:26:36.226Z,28.23
2022-08-19T03:27:40.625Z,28.21
2022-08-19T03:28:47.739Z,28.21
2022-08-19T03:30:07.287Z,28.21
2022-08-19T03:31:41.540Z,28.21
2022-08-19T03:32:57.030Z,28.22
2022-08-19T03:34:03.383Z,28.22
2022-08-19T03:35:12.569Z,28.21
2022-08-19T03:36:16.959Z,28.22
2022-08-19T03:37:21.326Z,28.22
2022-08-19T03:38:25.676Z,28.21
2022-08-19T03:39:30.047Z,28.22
2022-08-19T03:40:34.668Z,28.23
2022-08-19T03:41:44.720Z,28.23
2022-08-19T03:42:51.900Z,28.23
2022-08-19T03:43:59.715Z,28.25
2022-08-19T03:45:04.088Z,28.25
2022-08-19T03:46:08.462Z,28.27
2022-08-19T03:47:12.826Z,28.26
2022-08-19T03:48:17.203Z,28.26
2022-08-19T03:49:21.653Z,28.26
2022-08-19T03:50:32.679Z,28.25
2022-08-19T03:51:37.017Z,28.27
2022-08-19T03:52:45.384Z,28.29
2022-08-19T03:53:51.383Z,28.28
2022-08-19T03:54:55.720Z,28.25
2022-08-19T03:56:00.112Z,28.26
2022-08-19T03:57:04.448Z,28.27
2022-08-19T03:58:08.785Z,28.26
2022-08-19T03:59:13.126Z,28.26
2022-08-19T04:00:17.718Z,28.28
2022-08-19T04:01:22.067Z,28.29
2022-08-19T04:02:39.668Z,28.28
2022-08-19T04:03:44.015Z,28.27
2022-08-19T04:04:48.340Z,28.29
2022-08-19T04:05:52.729Z,28.28
2022-08-19T04:06:57.105Z,28.28
2022-08-19T04:08:01.530Z,28.31
2022-08-19T04:09:05.877Z,28.3
2022-08-19T04:10:10.615Z,28.29
2022-08-19T04:11:17.707Z,28.28
2022-08-19T04:12:22.153Z,28.29
2022-08-19T04:13:26.516Z,28.32
2022-08-19T04:14:30.878Z,28.27
2022-08-19T04:15:35.217Z,28.17
2022-08-19T04:16:39.547Z,28.14
2022-08-19T04:17:43.942Z,28.09
2022-08-19T04:18:48.282Z,28.04
2022-08-19T04:19:52.637Z,28.04
2022-08-19T04:20:57.011Z,28.07
2022-08-19T04:22:01.380Z,28.01
2022-08-19T04:23:05.783Z,27.96
2022-08-19T04:24:10.130Z,27.97
2022-08-19T04:25:14.498Z,27.96
2022-08-19T04:26:18.869Z,27.88
2022-08-19T04:27:23.239Z,27.87
2022-08-19T04:28:27.610Z,27.85
2022-08-19T04:29:31.949Z,27.87
2022-08-19T04:30:36.313Z,27.85
2022-08-19T04:31:40.666Z,27.85
2022-08-19T04:32:45.036Z,27.82
2022-08-19T04:33:49.556Z,27.82
2022-08-19T04:35:01.047Z,27.82
2022-08-19T04:36:26.776Z,27.81
2022-08-19T04:37:34.722Z,27.74
2022-08-19T04:38:39.866Z,27.73
2022-08-19T04:39:44.284Z,27.74
2022-08-19T04:40:48.880Z,27.8
2022-08-19T04:41:53.285Z,27.83
2022-08-19T04:42:57.657Z,27.8
2022-08-19T04:44:04.349Z,27.79
2022-08-19T04:45:09.342Z,27.74
2022-08-19T04:46:32.631Z,27.77
2022-08-19T04:47:58.568Z,27.78
2022-08-19T04:49:30.903Z,27.76
2022-08-19T04:50:35.238Z,27.73
2022-08-19T04:51:39.574Z,27.71
2022-08-19T04:52:43.951Z,27.67
2022-08-19T04:53:48.335Z,27.69
2022-08-19T04:54:52.670Z,27.63
2022-08-19T04:55:57.011Z,27.67
2022-08-19T04:57:02.223Z,27.67
2022-08-19T04:58:07.954Z,27.64
2022-08-19T04:59:12.311Z,27.65
2022-08-19T05:00:16.673Z,27.69
2022-08-19T05:01:21.082Z,27.7
2022-08-19T05:02:25.717Z,27.69
2022-08-19T05:03:30.615Z,27.74
2022-08-19T05:04:35.090Z,27.79
2022-08-19T05:05:44.957Z,27.8
2022-08-19T05:06:49.709Z,27.8
2022-08-19T05:07:54.052Z,27.8
2022-08-19T05:08:58.408Z,27.82
2022-08-19T05:10:03.300Z,27.85
2022-08-19T05:11:07.625Z,27.87
2022-08-19T05:12:16.678Z,27.86
2022-08-19T05:13:21.157Z,27.88
2022-08-19T05:14:25.516Z,27.91
2022-08-19T05:15:29.887Z,27.91
2022-08-19T05:16:34.241Z,27.9
2022-08-19T05:17:39.345Z,27.9
2022-08-19T05:18:43.711Z,27.91
2022-08-19T05:19:48.081Z,27.75
2022-08-19T05:20:52.537Z,27.77
2022-08-19T05:21:56.894Z,27.79
2022-08-19T05:23:01.289Z,27.78
2022-08-19T05:24:25.388Z,27.82
2022-08-19T05:25:33.495Z,27.89
2022-08-19T05:26:38.137Z,27.88
2022-08-19T05:27:42.490Z,27.91
2022-08-19T05:28:46.873Z,27.9
2022-08-19T05:29:57.252Z,27.88
2022-08-19T05:31:01.622Z,27.87
2022-08-19T05:32:05.978Z,27.9
2022-08-19T05:33:10.344Z,27.9
2022-08-19T05:34:18.390Z,27.93
2022-08-19T05:35:24.619Z,27.94
2022-08-19T05:36:28.959Z,27.94
2022-08-19T05:37:33.345Z,27.93
2022-08-19T05:38:37.697Z,27.92
2022-08-19T05:39:42.156Z,27.92
2022-08-19T05:40:49.783Z,27.84
2022-08-19T05:41:54.157Z,27.73
2022-08-19T05:42:58.536Z,27.68
2022-08-19T05:44:02.908Z,27.76
2022-08-19T05:45:07.790Z,27.81
2022-08-19T05:46:12.166Z,27.84
2022-08-19T05:47:16.536Z,27.88
2022-08-19T05:48:20.885Z,27.89
2022-08-19T05:49:26.743Z,27.9
2022-08-19T05:50:31.118Z,27.83
2022-08-19T05:51:35.458Z,27.84
2022-08-19T05:52:43.751Z,27.87
2022-08-19T05:53:54.447Z,27.9
2022-08-19T05:54:58.799Z,27.9
2022-08-19T05:56:03.199Z,27.93
2022-08-19T05:57:07.562Z,27.91
2022-08-19T05:58:16.662Z,27.89
2022-08-19T05:59:25.585Z,27.75
2022-08-19T06:00:29.945Z,27.8
2022-08-19T06:01:34.314Z,27.8
2022-08-19T06:02:38.706Z,27.8
2022-08-19T06:03:43.208Z,27.8
2022-08-19T06:04:47.542Z,27.76
2022-08-19T06:05:52.325Z,27.8
2022-08-19T06:06:56.745Z,27.79
2022-08-19T06:08:01.073Z,27.74
2022-08-19T06:09:05.411Z,27.77
2022-08-19T06:10:09.789Z,27.68
2022-08-19T06:11:14.202Z,27.73
2022-08-19T06:12:18.615Z,27.4
2022-08-19T06:13:23.560Z,27.49
2022-08-19T06:14:28.251Z,27.46
2022-08-19T06:15:32.788Z,27.55
2022-08-19T06:16:37.121Z,27.28
2022-08-19T06:17:41.482Z,27.48
2022-08-19T06:18:45.830Z,27.61
2022-08-19T06:19:50.204Z,27.54
2022-08-19T06:20:56.061Z,27.63
2022-08-19T06:22:00.664Z,27.65
2022-08-19T06:23:05.723Z,27.63
2022-08-19T06:24:10.099Z,27.45
2022-08-19T06:25:14.437Z,27.55
2022-08-19T06:26:18.808Z,27.65
2022-08-19T06:27:23.206Z,27.71
2022-08-19T06:28:27.567Z,27.77
2022-08-19T06:29:31.986Z,27.8
2022-08-19T06:30:36.343Z,27.77
2022-08-19T06:31:40.701Z,27.79
2022-08-19T06:32:46.456Z,27.8
2022-08-19T06:33:50.827Z,27.75
2022-08-19T06:34:55.432Z,27.75
2022-08-19T06:35:59.823Z,27.77
2022-08-19T06:37:04.203Z,27.83
2022-08-19T06:38:08.604Z,27.82
2022-08-19T06:39:12.969Z,27.83
2022-08-19T06:40:17.425Z,27.6
2022-08-19T06:41:22.015Z,27.7
2022-08-19T06:42:26.337Z,27.77
2022-08-19T06:43:30.705Z,27.82
2022-08-19T06:44:35.094Z,27.85
2022-08-19T06:45:51.426Z,27.88
2022-08-19T06:46:59.055Z,27.9
2022-08-19T06:48:11.826Z,27.87
2022-08-19T06:49:16.937Z,27.83
2022-08-19T06:50:22.260Z,27.88
2022-08-19T06:51:29.820Z,27.91
2022-08-19T06:52:45.017Z,27.96
2022-08-19T06:54:53.758Z,27.92
2022-08-19T06:56:03.403Z,27.91
2022-08-19T06:57:07.760Z,27.9
2022-08-19T06:58:12.112Z,27.89
2022-08-19T06:59:16.857Z,27.88
2022-08-19T07:00:21.265Z,27.9
2022-08-19T07:01:25.780Z,27.91
2022-08-19T07:02:30.126Z,27.88
2022-08-19T07:03:34.743Z,27.88
2022-08-19T07:04:43.759Z,27.89
2022-08-19T07:05:48.555Z,27.94
2022-08-19T07:06:54.841Z,27.85
2022-08-19T07:08:04.701Z,27.87
2022-08-19T07:09:09.365Z,27.88
2022-08-19T07:10:15.571Z,27.88
2022-08-19T07:11:21.452Z,27.89
2022-08-19T07:12:31.982Z,27.89
2022-08-19T07:13:38.202Z,27.93
2022-08-19T07:14:42.548Z,27.91
2022-08-19T07:15:46.916Z,27.89
2022-08-19T07:16:51.423Z,27.84
2022-08-19T07:17:55.824Z,27.85
2022-08-19T07:19:00.234Z,27.87
2022-08-19T07:20:21.286Z,27.89
2022-08-19T07:21:31.967Z,27.88
2022-08-19T07:22:41.939Z,27.88
2022-08-19T07:23:46.334Z,27.97
2022-08-19T07:24:51.387Z,27.97
2022-08-19T07:25:56.047Z,27.95
2022-08-19T07:27:00.606Z,27.96
2022-08-19T07:28:05.141Z,27.94
2022-08-19T07:29:22.007Z,27.91
2022-08-19T07:30:31.825Z,27.96
2022-08-19T07:31:38.090Z,27.97
2022-08-19T07:32:45.804Z,27.98
2022-08-19T07:33:55.462Z,27.97
2022-08-19T07:35:00.478Z,27.94
2022-08-19T07:36:05.140Z,27.96
2022-08-19T07:37:09.527Z,27.96
2022-08-19T07:38:13.870Z,27.97
2022-08-19T07:39:18.246Z,27.93
2022-08-19T07:40:22.625Z,27.93
2022-08-19T07:41:27.004Z,27.94
2022-08-19T07:42:31.379Z,27.96
2022-08-19T07:43:36.193Z,27.99
2022-08-19T07:45:53.079Z,27.96
2022-08-19T07:46:57.589Z,27.96
2022-08-19T07:48:02.139Z,27.98
2022-08-19T07:49:07.945Z,27.98
2022-08-19T07:50:12.297Z,27.99
2022-08-19T07:51:16.686Z,28.01
2022-08-19T07:52:40.851Z,27.94
2022-08-19T07:53:45.223Z,27.92
2022-08-19T07:54:49.565Z,27.92
2022-08-19T07:55:53.925Z,27.96
2022-08-19T07:56:58.371Z,27.97
2022-08-19T07:58:03.248Z,28
2022-08-19T07:59:09.163Z,27.95
2022-08-19T08:00:13.888Z,27.94
2022-08-19T08:01:20.757Z,27.97
2022-08-19T08:02:25.184Z,28.01
2022-08-19T08:03:29.538Z,28.05
2022-08-19T08:04:33.879Z,28.09
2022-08-19T08:05:41.760Z,28.08
2022-08-19T08:06:47.807Z,28.1
2022-08-19T08:07:52.168Z,28.1
2022-08-19T08:08:56.532Z,28.06
2022-08-19T08:10:03.198Z,28.06
2022-08-19T08:11:15.448Z,28.08
2022-08-19T08:12:34.020Z,28.07
2022-08-19T08:13:39.188Z,28.06
2022-08-19T08:14:44.061Z,28.07
2022-08-19T08:15:50.620Z,28.08
2022-08-19T08:16:59.497Z,28.06
2022-08-19T08:18:04.035Z,28.08
2022-08-19T08:19:16.431Z,28.09
2022-08-19T08:20:29.692Z,28.12
2022-08-19T08:21:34.055Z,28.14
2022-08-19T08:22:38.583Z,28.15
2022-08-19T08:23:42.947Z,28.17
2022-08-19T08:24:47.514Z,28.13
2022-08-19T08:25:52.710Z,28.13
2022-08-19T08:26:57.744Z,28.17
2022-08-19T08:28:02.927Z,28.18
2022-08-19T08:29:12.203Z,28.18
2022-08-19T08:30:17.773Z,28.21
2022-08-19T08:31:23.130Z,28.22
2022-08-19T08:32:27.520Z,28.22
2022-08-19T08:33:33.467Z,28.26
2022-08-19T08:34:39.858Z,28.25
2022-08-19T08:35:44.256Z,28.25
2022-08-19T08:36:48.608Z,28.27
2022-08-19T08:37:53.113Z,28.28
2022-08-19T08:40:02.818Z,28.25
2022-08-19T08:41:07.403Z,28.27
2022-08-19T08:42:17.601Z,28.23
2022-08-19T08:43:22.214Z,28.26
2022-08-19T08:44:26.610Z,28.2
2022-08-19T08:45:32.901Z,28.24
2022-08-19T08:46:45.831Z,28.27
2022-08-19T08:47:51.150Z,28.29
2022-08-19T08:48:55.840Z,28.29
2022-08-19T08:50:01.980Z,28.3
2022-08-19T08:51:09.279Z,28.26
2022-08-19T08:52:13.692Z,28.25
2022-08-19T08:53:26.364Z,28.21
2022-08-19T08:54:49.290Z,28.26
2022-08-19T08:56:00.639Z,28.27
2022-08-19T08:57:05.231Z,28.3
2022-08-19T08:58:09.639Z,28.33
2022-08-19T08:59:13.986Z,28.33
2022-08-19T09:00:18.496Z,28.3
2022-08-19T09:01:23.050Z,28.29
2022-08-19T09:02:33.639Z,28.3
2022-08-19T09:03:38.021Z,28.33
2022-08-19T09:04:45.135Z,28.31
2022-08-19T09:05:51.811Z,28.35
2022-08-19T09:06:57.763Z,28.38
2022-08-19T09:08:02.131Z,28.39
2022-08-19T09:09:11.675Z,28.37
2022-08-19T09:10:18.484Z,28.36
2022-08-19T09:11:42.260Z,28.34
2022-08-19T09:12:48.707Z,28.39
2022-08-19T09:13:53.055Z,28.42
2022-08-19T09:14:57.452Z,28.43
2022-08-19T09:16:01.818Z,28.46
2022-08-19T09:17:06.185Z,28.47
2022-08-19T09:18:14.997Z,28.49
2022-08-19T09:19:23.786Z,28.49
2022-08-19T09:20:31.784Z,28.51
2022-08-19T09:21:36.403Z,28.51
2022-08-19T09:22:44.954Z,28.52
2022-08-19T09:23:50.874Z,28.51
2022-08-19T09:24:55.496Z,28.41
2022-08-19T09:25:59.892Z,28.48
2022-08-19T09:27:08.344Z,28.5
2022-08-19T09:28:27.151Z,28.49
2022-08-19T09:29:34.751Z,28.51
2022-08-19T09:30:39.264Z,28.53
2022-08-19T09:31:43.642Z,28.51
2022-08-19T09:32:52.785Z,28.47
2022-08-19T09:33:59.270Z,28.49
2022-08-19T09:35:08.793Z,28.53
2022-08-19T09:36:21.703Z,28.56
2022-08-19T09:37:39.258Z,28.57
2022-08-19T09:38:47.140Z,28.57
2022-08-19T09:39:52.318Z,28.58
2022-08-19T09:40:57.344Z,28.58
2022-08-19T09:42:03.209Z,28.59
2022-08-19T09:43:33.368Z,28.62
2022-08-19T09:44:51.222Z,28.61
2022-08-19T09:45:55.583Z,28.58
2022-08-19T09:46:59.934Z,28.62
2022-08-19T09:48:04.322Z,28.6
2022-08-19T09:49:09.194Z,28.63
2022-08-19T09:50:16.448Z,28.67
2022-08-19T09:51:21.491Z,28.73
2022-08-19T09:52:32.559Z,28.69
2022-08-19T09:53:40.893Z,28.84
2022-08-19T09:54:45.267Z,28.79
2022-08-19T09:55:56.650Z,28.76
2022-08-19T09:57:01.030Z,28.68
2022-08-19T09:58:11.479Z,28.66
2022-08-19T09:59:15.843Z,28.68
2022-08-19T10:00:20.199Z,28.77
2022-08-19T10:01:24.568Z,28.82
2022-08-19T10:02:29.106Z,28.77
2022-08-19T10:03:34.178Z,28.79
2022-08-19T10:04:38.537Z,28.79
2022-08-19T10:05:48.370Z,28.77
2022-08-19T10:06:57.006Z,28.78
2022-08-19T10:08:02.165Z,28.74
2022-08-19T10:09:16.964Z,28.75
2022-08-19T10:10:38.389Z,28.75
2022-08-19T10:11:54.503Z,28.75
2022-08-19T10:12:59.345Z,28.74
2022-08-19T10:14:05.229Z,28.71
2022-08-19T10:15:09.566Z,28.71
2022-08-19T10:16:13.998Z,28.67
2022-08-19T10:17:24.072Z,28.69
2022-08-19T10:18:36.038Z,28.71
2022-08-19T10:19:49.064Z,28.71
2022-08-19T10:21:00.326Z,28.66
2022-08-19T10:22:04.672Z,28.69
2022-08-19T10:23:14.737Z,28.67
2022-08-19T10:24:20.384Z,28.64
2022-08-19T10:25:24.810Z,28.62
2022-08-19T10:26:29.176Z,28.55
2022-08-19T10:27:33.550Z,28.53
2022-08-19T10:28:47.141Z,28.53
2022-08-19T10:29:51.643Z,28.52
2022-08-19T10:31:01.102Z,28.5
2022-08-19T10:32:09.593Z,28.49
2022-08-19T10:33:19.243Z,28.48
2022-08-19T10:34:57.394Z,28.49
2022-08-19T10:36:01.797Z,28.49
2022-08-19T10:37:06.150Z,28.47
2022-08-19T10:38:20.339Z,28.46
2022-08-19T10:39:41.202Z,28.46
2022-08-19T10:40:47.995Z,28.47
2022-08-19T10:41:52.351Z,28.45
2022-08-19T10:42:56.704Z,28.44
2022-08-19T10:44:04.246Z,28.44
2022-08-19T10:45:08.942Z,28.44
2022-08-19T10:46:13.978Z,28.44
2022-08-19T10:47:24.833Z,28.43
2022-08-19T10:48:35.260Z,28.43
2022-08-19T10:49:39.708Z,28.41
2022-08-19T10:50:44.113Z,28.41
2022-08-19T10:51:48.615Z,28.4
2022-08-19T10:52:53.048Z,28.4
2022-08-19T10:54:00.723Z,28.4
2022-08-19T10:55:09.182Z,28.4
2022-08-19T10:56:13.571Z,28.41
2022-08-19T10:57:17.951Z,28.4
2022-08-19T10:58:22.330Z,28.4
2022-08-19T10:59:26.743Z,28.39
2022-08-19T11:00:38.293Z,28.41
2022-08-19T11:01:42.718Z,28.41
2022-08-19T11:02:47.876Z,28.41
2022-08-19T11:03:52.280Z,28.4
2022-08-19T11:04:56.649Z,28.38
2022-08-19T11:06:16.024Z,28.38
2022-08-19T11:07:20.391Z,28.39
2022-08-19T11:08:24.746Z,28.38
2022-08-19T11:09:33.858Z,28.37
2022-08-19T11:10:38.573Z,28.38
2022-08-19T11:11:42.936Z,28.38
2022-08-19T11:12:48.210Z,28.37
2022-08-19T11:13:52.727Z,28.38
2022-08-19T11:14:57.077Z,28.38
2022-08-19T11:16:05.248Z,28.37
2022-08-19T11:17:11.655Z,28.37
2022-08-19T11:18:16.034Z,28.36
2022-08-19T11:19:20.388Z,28.36
2022-08-19T11:20:24.773Z,28.36
2022-08-19T11:21:29.153Z,28.36
2022-08-19T11:22:39.095Z,28.36
2022-08-19T11:23:45.861Z,28.38
2022-08-19T11:24:50.214Z,28.36
2022-08-19T11:25:54.577Z,28.36
2022-08-19T11:26:58.940Z,28.37
2022-08-19T11:28:03.279Z,28.37
2022-08-19T11:29:07.623Z,28.36
2022-08-19T11:30:12.708Z,28.36
2022-08-19T11:31:17.631Z,28.37
2022-08-19T11:32:21.987Z,28.36
2022-08-19T11:33:26.339Z,28.38
2022-08-19T11:34:30.718Z,28.39
2022-08-19T11:35:35.070Z,28.37
2022-08-19T11:36:39.459Z,28.37
2022-08-19T11:37:43.834Z,28.38
2022-08-19T11:38:48.191Z,28.38
2022-08-19T11:39:53.524Z,28.37
2022-08-19T11:40:58.395Z,28.36
2022-08-19T11:42:02.754Z,28.37
2022-08-19T11:43:07.176Z,28.37
2022-08-19T11:44:11.518Z,28.37
2022-08-19T11:45:15.874Z,28.38
2022-08-19T11:46:20.221Z,28.39
2022-08-19T11:47:24.565Z,28.38
2022-08-19T11:48:30.244Z,28.38
2022-08-19T11:49:34.561Z,28.37
2022-08-19T11:50:38.913Z,28.36
2022-08-19T11:51:44.283Z,28.36
2022-08-19T11:52:48.635Z,28.36
2022-08-19T11:53:53.003Z,28.36
2022-08-19T11:54:57.388Z,28.36
2022-08-19T11:56:01.788Z,28.38
2022-08-19T11:57:06.162Z,28.38
2022-08-19T11:58:15.033Z,28.38
2022-08-19T11:59:23.473Z,28.38
2022-08-19T12:00:27.814Z,28.36
2022-08-19T12:01:32.210Z,28.36
2022-08-19T12:02:36.561Z,28.37
2022-08-19T12:03:40.997Z,28.37
2022-08-19T12:04:45.499Z,28.37
2022-08-19T12:05:49.863Z,28.36
2022-08-19T12:06:54.249Z,28.37
2022-08-19T12:07:58.622Z,28.37
2022-08-19T12:09:02.976Z,28.38
2022-08-19T12:10:07.347Z,28.39
2022-08-19T12:11:14.140Z,28.38
2022-08-19T12:12:18.479Z,28.38
2022-08-19T12:13:22.846Z,28.38
2022-08-19T12:14:27.204Z,28.38
2022-08-19T12:15:33.725Z,28.38
2022-08-19T12:16:42.702Z,28.39
2022-08-19T12:17:57.090Z,28.4
2022-08-19T12:19:01.446Z,28.4
2022-08-19T12:20:05.808Z,28.4
2022-08-19T12:21:10.184Z,28.41
2022-08-19T12:22:14.569Z,28.42
2022-08-19T12:23:18.938Z,28.43
2022-08-19T12:24:23.296Z,28.45
2022-08-19T12:25:28.054Z,28.45
2022-08-19T12:26:32.513Z,28.48
2022-08-19T12:27:57.381Z,28.49
2022-08-19T12:29:03.196Z,28.49
2022-08-19T12:30:07.577Z,28.5
2022-08-19T12:31:12.012Z,28.51
2022-08-19T12:32:16.416Z,28.51
2022-08-19T12:33:20.791Z,28.52
2022-08-19T12:34:25.164Z,28.53
2022-08-19T12:35:29.506Z,28.53
2022-08-19T12:36:33.900Z,28.54
2022-08-19T12:37:39.733Z,28.54
2022-08-19T12:38:44.104Z,28.55
2022-08-19T12:39:48.563Z,28.55
2022-08-19T12:40:55.135Z,28.55
2022-08-19T12:42:03.770Z,28.56
2022-08-19T12:43:08.229Z,28.56
2022-08-19T12:44:12.574Z,28.57
2022-08-19T12:45:21.622Z,28.56
2022-08-19T12:46:26.372Z,28.57
2022-08-19T12:47:31.507Z,28.58
2022-08-19T12:48:44.608Z,28.57
2022-08-19T12:49:55.645Z,28.57
2022-08-19T12:51:00.270Z,28.58
2022-08-19T12:52:05.248Z,28.58
2022-08-19T12:53:09.590Z,28.58
2022-08-19T12:54:13.978Z,28.59
2022-08-19T12:55:18.364Z,28.59
2022-08-19T12:56:23.433Z,28.59
2022-08-19T12:57:31.599Z,28.6
2022-08-19T12:58:37.030Z,28.59
2022-08-19T12:59:41.432Z,28.59
2022-08-19T13:00:45.830Z,28.6
2022-08-19T13:01:50.334Z,28.61
2022-08-19T13:02:54.689Z,28.61
2022-08-19T13:03:59.058Z,28.61
2022-08-19T13:05:03.432Z,28.6
2022-08-19T13:06:09.171Z,28.59
2022-08-19T13:07:13.576Z,28.58
2022-08-19T13:08:17.915Z,28.59
2022-08-19T13:09:22.278Z,28.59
2022-08-19T13:10:26.643Z,28.59
2022-08-19T13:11:31.013Z,28.58
2022-08-19T13:12:35.365Z,28.58
2022-08-19T13:13:39.747Z,28.59
2022-08-19T13:14:44.391Z,28.58
2022-08-19T13:15:49.072Z,28.58
2022-08-19T13:16:53.412Z,28.58
2022-08-19T13:17:57.910Z,28.59
2022-08-19T13:19:02.314Z,28.59
2022-08-19T13:20:06.751Z,28.59
2022-08-19T13:21:11.122Z,28.6
2022-08-19T13:22:15.475Z,28.59
2022-08-19T13:23:19.847Z,28.6
2022-08-19T13:24:24.202Z,28.61
2022-08-19T13:25:37.347Z,28.6
2022-08-19T13:26:41.712Z,28.6
2022-08-19T13:27:46.076Z,28.61
2022-08-19T13:28:50.507Z,28.62
2022-08-19T13:29:54.887Z,28.63
2022-08-19T13:30:59.233Z,28.63
2022-08-19T13:32:03.607Z,28.62
2022-08-19T13:33:08.750Z,28.62
2022-08-19T13:34:13.107Z,28.62
2022-08-19T13:35:17.496Z,28.63
2022-08-19T13:36:21.873Z,28.64
2022-08-19T13:37:26.229Z,28.64
2022-08-19T13:38:30.578Z,28.64
2022-08-19T13:39:34.985Z,28.64
2022-08-19T13:40:39.426Z,28.64
2022-08-19T13:41:45.592Z,28.64
2022-08-19T13:42:49.982Z,28.65
2022-08-19T13:43:54.342Z,28.65
2022-08-19T13:44:58.708Z,28.66
2022-08-19T13:46:03.079Z,28.66
2022-08-19T13:47:07.430Z,28.67
2022-08-19T13:48:11.764Z,28.66
2022-08-19T13:49:16.131Z,28.66
2022-08-19T13:50:20.561Z,28.66
2022-08-19T13:51:24.885Z,28.66
2022-08-19T13:52:29.268Z,28.66
2022-08-19T13:53:33.658Z,28.66
2022-08-19T13:54:38.077Z,28.67
2022-08-19T13:55:42.487Z,28.66
2022-08-19T13:56:46.839Z,28.67
2022-08-19T13:57:51.208Z,28.67
2022-08-19T13:58:55.710Z,28.67
2022-08-19T14:00:03.947Z,28.67
2022-08-19T14:01:08.518Z,28.67
2022-08-19T14:02:13.029Z,28.66
2022-08-19T14:03:17.371Z,28.67
2022-08-19T14:04:21.717Z,28.67
2022-08-19T14:05:26.073Z,28.67
2022-08-19T14:06:30.493Z,28.67
2022-08-19T14:07:34.860Z,28.67
2022-08-19T14:08:41.222Z,28.67
2022-08-19T14:09:49.764Z,28.68
2022-08-19T14:10:54.140Z,28.69
2022-08-19T14:11:58.497Z,28.7
2022-08-19T14:13:02.842Z,28.7
2022-08-19T14:14:07.223Z,28.7
2022-08-19T14:15:14.599Z,28.7
2022-08-19T14:16:18.946Z,28.7
2022-08-19T14:17:23.309Z,28.69
2022-08-19T14:18:28.622Z,28.7